<?xml version="1.0" encoding="UTF-8" standalone="no" ?>
<gpx xmlns="http://www.topografix.com/GPX/1/1" xmlns:xsi="http://www.w3.org/2001/XMLSchema-instance" xsi:schemaLocation="http://www.topografix.com/GPX/1/1 http://www.topografix.com/GPX/1/1/gpx.xsd" version="1.1" creator="VisuGPX - https://www.visugpx.com">
  <metadata>
    <name>Compile Mt Ventoux</name>
  </metadata>
  <trk>
    <name><![CDATA[14200901-bleu rouge Malaucene - 14km 310]]></name>
    <extensions>
      <line xmlns="http://www.topografix.com/GPX/gpx_style/0/2">
        <color>008800</color>
        <width>4</width>
      </line>
    </extensions>
    <trkseg>
      <trkpt lat="44.17477" lon="5.13249">
        <ele>326</ele>
        <time>2022-01-31T10:07:07Z</time>
      </trkpt>
      <trkpt lat="44.17542" lon="5.13179">
        <ele>324</ele>
        <time>2022-01-31T10:07:26Z</time>
      </trkpt>
      <trkpt lat="44.17555" lon="5.13139">
        <ele>323</ele>
        <time>2022-01-31T10:07:34Z</time>
      </trkpt>
      <trkpt lat="44.1759" lon="5.13118">
        <ele>321</ele>
        <time>2022-01-31T10:07:42Z</time>
      </trkpt>
      <trkpt lat="44.17713" lon="5.1304">
        <ele>315</ele>
        <time>2022-01-31T10:08:14Z</time>
      </trkpt>
      <trkpt lat="44.17775" lon="5.13076">
        <ele>315</ele>
        <time>2022-01-31T10:08:30Z</time>
      </trkpt>
      <trkpt lat="44.1779" lon="5.13026">
        <ele>314</ele>
        <time>2022-01-31T10:08:39Z</time>
      </trkpt>
      <trkpt lat="44.17801" lon="5.12939">
        <ele>312</ele>
        <time>2022-01-31T10:08:54Z</time>
      </trkpt>
      <trkpt lat="44.17903" lon="5.12879">
        <ele>310</ele>
        <time>2022-01-31T10:09:19Z</time>
      </trkpt>
      <trkpt lat="44.18019" lon="5.12848">
        <ele>308</ele>
        <time>2022-01-31T10:09:47Z</time>
      </trkpt>
      <trkpt lat="44.17998" lon="5.12776">
        <ele>309</ele>
        <time>2022-01-31T10:10:00Z</time>
      </trkpt>
      <trkpt lat="44.18036" lon="5.12747">
        <ele>309</ele>
        <time>2022-01-31T10:10:10Z</time>
      </trkpt>
      <trkpt lat="44.17993" lon="5.12675">
        <ele>312</ele>
        <time>2022-01-31T10:10:26Z</time>
      </trkpt>
      <trkpt lat="44.18156" lon="5.12594">
        <ele>309</ele>
        <time>2022-01-31T10:11:06Z</time>
      </trkpt>
      <trkpt lat="44.18259" lon="5.12403">
        <ele>309</ele>
        <time>2022-01-31T10:11:46Z</time>
      </trkpt>
      <trkpt lat="44.18241" lon="5.12335">
        <ele>303</ele>
        <time>2022-01-31T10:11:58Z</time>
      </trkpt>
      <trkpt lat="44.18262" lon="5.12226">
        <ele>293</ele>
        <time>2022-01-31T10:12:17Z</time>
      </trkpt>
      <trkpt lat="44.18257" lon="5.12114">
        <ele>290</ele>
        <time>2022-01-31T10:12:36Z</time>
      </trkpt>
      <trkpt lat="44.18384" lon="5.12003">
        <ele>286</ele>
        <time>2022-01-31T10:13:11Z</time>
      </trkpt>
      <trkpt lat="44.18418" lon="5.11902">
        <ele>285</ele>
        <time>2022-01-31T10:13:30Z</time>
      </trkpt>
      <trkpt lat="44.18428" lon="5.11743">
        <ele>286</ele>
        <time>2022-01-31T10:13:56Z</time>
      </trkpt>
      <trkpt lat="44.18378" lon="5.11552">
        <ele>289</ele>
        <time>2022-01-31T10:14:31Z</time>
      </trkpt>
      <trkpt lat="44.17976" lon="5.1163">
        <ele>296</ele>
        <time>2022-01-31T10:16:05Z</time>
      </trkpt>
      <trkpt lat="44.17687" lon="5.11678">
        <ele>304</ele>
        <time>2022-01-31T10:17:13Z</time>
      </trkpt>
      <trkpt lat="44.17485" lon="5.11804">
        <ele>309</ele>
        <time>2022-01-31T10:18:05Z</time>
      </trkpt>
      <trkpt lat="44.17343" lon="5.11851">
        <ele>314</ele>
        <time>2022-01-31T10:18:39Z</time>
      </trkpt>
      <trkpt lat="44.17211" lon="5.11844">
        <ele>320</ele>
        <time>2022-01-31T10:19:10Z</time>
      </trkpt>
      <trkpt lat="44.17247" lon="5.11616">
        <ele>334</ele>
        <time>2022-01-31T10:19:49Z</time>
      </trkpt>
      <trkpt lat="44.17299" lon="5.11555">
        <ele>334</ele>
        <time>2022-01-31T10:20:05Z</time>
      </trkpt>
      <trkpt lat="44.17296" lon="5.11494">
        <ele>335</ele>
        <time>2022-01-31T10:20:15Z</time>
      </trkpt>
      <trkpt lat="44.17335" lon="5.11432">
        <ele>337</ele>
        <time>2022-01-31T10:20:29Z</time>
      </trkpt>
      <trkpt lat="44.17322" lon="5.11275">
        <ele>342</ele>
        <time>2022-01-31T10:20:55Z</time>
      </trkpt>
      <trkpt lat="44.17281" lon="5.11118">
        <ele>346</ele>
        <time>2022-01-31T10:21:23Z</time>
      </trkpt>
      <trkpt lat="44.17382" lon="5.11018">
        <ele>343</ele>
        <time>2022-01-31T10:21:52Z</time>
      </trkpt>
      <trkpt lat="44.17483" lon="5.10875">
        <ele>348</ele>
        <time>2022-01-31T10:22:26Z</time>
      </trkpt>
      <trkpt lat="44.17506" lon="5.1083">
        <ele>348</ele>
        <time>2022-01-31T10:22:35Z</time>
      </trkpt>
      <trkpt lat="44.1748" lon="5.10774">
        <ele>353</ele>
        <time>2022-01-31T10:22:46Z</time>
      </trkpt>
      <trkpt lat="44.1748" lon="5.10722">
        <ele>357</ele>
        <time>2022-01-31T10:22:55Z</time>
      </trkpt>
      <trkpt lat="44.17499" lon="5.10613">
        <ele>363</ele>
        <time>2022-01-31T10:23:14Z</time>
      </trkpt>
      <trkpt lat="44.17506" lon="5.10516">
        <ele>363</ele>
        <time>2022-01-31T10:23:30Z</time>
      </trkpt>
      <trkpt lat="44.17494" lon="5.1043">
        <ele>367</ele>
        <time>2022-01-31T10:23:45Z</time>
      </trkpt>
      <trkpt lat="44.17593" lon="5.10338">
        <ele>366</ele>
        <time>2022-01-31T10:24:13Z</time>
      </trkpt>
      <trkpt lat="44.17589" lon="5.10287">
        <ele>371</ele>
        <time>2022-01-31T10:24:21Z</time>
      </trkpt>
      <trkpt lat="44.17611" lon="5.10229">
        <ele>379</ele>
        <time>2022-01-31T10:24:32Z</time>
      </trkpt>
      <trkpt lat="44.17693" lon="5.10169">
        <ele>394</ele>
        <time>2022-01-31T10:24:54Z</time>
      </trkpt>
      <trkpt lat="44.17743" lon="5.10089">
        <ele>407</ele>
        <time>2022-01-31T10:25:12Z</time>
      </trkpt>
      <trkpt lat="44.17756" lon="5.10053">
        <ele>412</ele>
        <time>2022-01-31T10:25:18Z</time>
      </trkpt>
      <trkpt lat="44.17802" lon="5.09982">
        <ele>418</ele>
        <time>2022-01-31T10:25:34Z</time>
      </trkpt>
      <trkpt lat="44.17837" lon="5.09881">
        <ele>443</ele>
        <time>2022-01-31T10:25:53Z</time>
      </trkpt>
      <trkpt lat="44.17926" lon="5.09802">
        <ele>458</ele>
        <time>2022-01-31T10:26:18Z</time>
      </trkpt>
      <trkpt lat="44.17906" lon="5.0977">
        <ele>465</ele>
        <time>2022-01-31T10:26:25Z</time>
      </trkpt>
      <trkpt lat="44.1793" lon="5.09664">
        <ele>470</ele>
        <time>2022-01-31T10:26:44Z</time>
      </trkpt>
      <trkpt lat="44.17837" lon="5.0961">
        <ele>473</ele>
        <time>2022-01-31T10:27:07Z</time>
      </trkpt>
      <trkpt lat="44.17801" lon="5.09516">
        <ele>469</ele>
        <time>2022-01-31T10:27:25Z</time>
      </trkpt>
      <trkpt lat="44.17721" lon="5.09437">
        <ele>459</ele>
        <time>2022-01-31T10:27:48Z</time>
      </trkpt>
      <trkpt lat="44.17594" lon="5.09384">
        <ele>452</ele>
        <time>2022-01-31T10:28:19Z</time>
      </trkpt>
      <trkpt lat="44.17568" lon="5.09368">
        <ele>448</ele>
        <time>2022-01-31T10:28:25Z</time>
      </trkpt>
      <trkpt lat="44.17542" lon="5.09303">
        <ele>434</ele>
        <time>2022-01-31T10:28:38Z</time>
      </trkpt>
      <trkpt lat="44.17465" lon="5.09347">
        <ele>437</ele>
        <time>2022-01-31T10:28:57Z</time>
      </trkpt>
      <trkpt lat="44.17364" lon="5.09321">
        <ele>418</ele>
        <time>2022-01-31T10:29:21Z</time>
      </trkpt>
      <trkpt lat="44.17286" lon="5.09412">
        <ele>422</ele>
        <time>2022-01-31T10:29:45Z</time>
      </trkpt>
      <trkpt lat="44.17203" lon="5.09408">
        <ele>409</ele>
        <time>2022-01-31T10:30:04Z</time>
      </trkpt>
      <trkpt lat="44.17082" lon="5.09516">
        <ele>423</ele>
        <time>2022-01-31T10:30:38Z</time>
      </trkpt>
      <trkpt lat="44.17025" lon="5.09523">
        <ele>416</ele>
        <time>2022-01-31T10:30:51Z</time>
      </trkpt>
      <trkpt lat="44.16908" lon="5.09617">
        <ele>417</ele>
        <time>2022-01-31T10:31:23Z</time>
      </trkpt>
      <trkpt lat="44.16789" lon="5.09671">
        <ele>413</ele>
        <time>2022-01-31T10:31:52Z</time>
      </trkpt>
      <trkpt lat="44.16735" lon="5.09729">
        <ele>417</ele>
        <time>2022-01-31T10:32:08Z</time>
      </trkpt>
      <trkpt lat="44.16662" lon="5.09765">
        <ele>410</ele>
        <time>2022-01-31T10:32:26Z</time>
      </trkpt>
      <trkpt lat="44.16642" lon="5.09711">
        <ele>400</ele>
        <time>2022-01-31T10:32:36Z</time>
      </trkpt>
      <trkpt lat="44.16577" lon="5.0979">
        <ele>403</ele>
        <time>2022-01-31T10:32:56Z</time>
      </trkpt>
      <trkpt lat="44.16466" lon="5.09855">
        <ele>398</ele>
        <time>2022-01-31T10:33:25Z</time>
      </trkpt>
      <trkpt lat="44.16328" lon="5.10021">
        <ele>388</ele>
        <time>2022-01-31T10:34:07Z</time>
      </trkpt>
      <trkpt lat="44.16253" lon="5.10076">
        <ele>384</ele>
        <time>2022-01-31T10:34:27Z</time>
      </trkpt>
      <trkpt lat="44.16199" lon="5.10169">
        <ele>382</ele>
        <time>2022-01-31T10:34:47Z</time>
      </trkpt>
      <trkpt lat="44.16129" lon="5.10198">
        <ele>377</ele>
        <time>2022-01-31T10:35:04Z</time>
      </trkpt>
      <trkpt lat="44.15982" lon="5.10187">
        <ele>361</ele>
        <time>2022-01-31T10:35:38Z</time>
      </trkpt>
      <trkpt lat="44.15904" lon="5.10202">
        <ele>355</ele>
        <time>2022-01-31T10:35:57Z</time>
      </trkpt>
      <trkpt lat="44.15873" lon="5.10238">
        <ele>349</ele>
        <time>2022-01-31T10:36:06Z</time>
      </trkpt>
      <trkpt lat="44.15818" lon="5.10256">
        <ele>344</ele>
        <time>2022-01-31T10:36:19Z</time>
      </trkpt>
      <trkpt lat="44.1565" lon="5.10346">
        <ele>344</ele>
        <time>2022-01-31T10:37:01Z</time>
      </trkpt>
      <trkpt lat="44.15695" lon="5.10537">
        <ele>335</ele>
        <time>2022-01-31T10:37:35Z</time>
      </trkpt>
      <trkpt lat="44.15774" lon="5.10552">
        <ele>338</ele>
        <time>2022-01-31T10:37:54Z</time>
      </trkpt>
      <trkpt lat="44.1586" lon="5.10574">
        <ele>341</ele>
        <time>2022-01-31T10:38:14Z</time>
      </trkpt>
      <trkpt lat="44.15844" lon="5.10639">
        <ele>344</ele>
        <time>2022-01-31T10:38:26Z</time>
      </trkpt>
      <trkpt lat="44.15873" lon="5.10754">
        <ele>352</ele>
        <time>2022-01-31T10:38:46Z</time>
      </trkpt>
      <trkpt lat="44.15803" lon="5.10869">
        <ele>357</ele>
        <time>2022-01-31T10:39:11Z</time>
      </trkpt>
      <trkpt lat="44.15803" lon="5.10949">
        <ele>362</ele>
        <time>2022-01-31T10:39:25Z</time>
      </trkpt>
      <trkpt lat="44.15834" lon="5.11183">
        <ele>362</ele>
        <time>2022-01-31T10:40:05Z</time>
      </trkpt>
      <trkpt lat="44.15882" lon="5.11215">
        <ele>368</ele>
        <time>2022-01-31T10:40:17Z</time>
      </trkpt>
      <trkpt lat="44.15845" lon="5.11266">
        <ele>364</ele>
        <time>2022-01-31T10:40:29Z</time>
      </trkpt>
      <trkpt lat="44.15833" lon="5.11359">
        <ele>371</ele>
        <time>2022-01-31T10:40:45Z</time>
      </trkpt>
      <trkpt lat="44.1579" lon="5.11448">
        <ele>370</ele>
        <time>2022-01-31T10:41:03Z</time>
      </trkpt>
      <trkpt lat="44.15782" lon="5.11487">
        <ele>371</ele>
        <time>2022-01-31T10:41:10Z</time>
      </trkpt>
      <trkpt lat="44.15797" lon="5.11525">
        <ele>373</ele>
        <time>2022-01-31T10:41:17Z</time>
      </trkpt>
      <trkpt lat="44.15783" lon="5.11661">
        <ele>374</ele>
        <time>2022-01-31T10:41:40Z</time>
      </trkpt>
      <trkpt lat="44.15768" lon="5.11702">
        <ele>374</ele>
        <time>2022-01-31T10:41:48Z</time>
      </trkpt>
      <trkpt lat="44.15753" lon="5.11739">
        <ele>373</ele>
        <time>2022-01-31T10:41:55Z</time>
      </trkpt>
      <trkpt lat="44.15739" lon="5.11835">
        <ele>377</ele>
        <time>2022-01-31T10:42:11Z</time>
      </trkpt>
      <trkpt lat="44.1569" lon="5.11965">
        <ele>380</ele>
        <time>2022-01-31T10:42:36Z</time>
      </trkpt>
      <trkpt lat="44.1567" lon="5.12006">
        <ele>379</ele>
        <time>2022-01-31T10:42:44Z</time>
      </trkpt>
      <trkpt lat="44.15639" lon="5.12103">
        <ele>379</ele>
        <time>2022-01-31T10:43:02Z</time>
      </trkpt>
      <trkpt lat="44.15636" lon="5.12196">
        <ele>386</ele>
        <time>2022-01-31T10:43:18Z</time>
      </trkpt>
      <trkpt lat="44.15617" lon="5.12264">
        <ele>385</ele>
        <time>2022-01-31T10:43:30Z</time>
      </trkpt>
      <trkpt lat="44.15622" lon="5.12335">
        <ele>385</ele>
        <time>2022-01-31T10:43:42Z</time>
      </trkpt>
      <trkpt lat="44.15687" lon="5.12443">
        <ele>387</ele>
        <time>2022-01-31T10:44:05Z</time>
      </trkpt>
      <trkpt lat="44.15893" lon="5.12554">
        <ele>403</ele>
        <time>2022-01-31T10:44:57Z</time>
      </trkpt>
      <trkpt lat="44.16004" lon="5.12576">
        <ele>400</ele>
        <time>2022-01-31T10:45:23Z</time>
      </trkpt>
      <trkpt lat="44.16035" lon="5.12477">
        <ele>400</ele>
        <time>2022-01-31T10:45:41Z</time>
      </trkpt>
      <trkpt lat="44.16173" lon="5.12331">
        <ele>385</ele>
        <time>2022-01-31T10:46:22Z</time>
      </trkpt>
      <trkpt lat="44.16287" lon="5.12142">
        <ele>372</ele>
        <time>2022-01-31T10:47:03Z</time>
      </trkpt>
      <trkpt lat="44.16444" lon="5.12026">
        <ele>360</ele>
        <time>2022-01-31T10:47:45Z</time>
      </trkpt>
      <trkpt lat="44.16635" lon="5.11988">
        <ele>346</ele>
        <time>2022-01-31T10:48:30Z</time>
      </trkpt>
      <trkpt lat="44.16915" lon="5.11902">
        <ele>332</ele>
        <time>2022-01-31T10:49:37Z</time>
      </trkpt>
      <trkpt lat="44.16949" lon="5.1246">
        <ele>357</ele>
        <time>2022-01-31T10:51:10Z</time>
      </trkpt>
      <trkpt lat="44.17118" lon="5.12546">
        <ele>374</ele>
        <time>2022-01-31T10:51:52Z</time>
      </trkpt>
      <trkpt lat="44.17125" lon="5.12627">
        <ele>369</ele>
        <time>2022-01-31T10:52:06Z</time>
      </trkpt>
      <trkpt lat="44.17112" lon="5.12773">
        <ele>351</ele>
        <time>2022-01-31T10:52:31Z</time>
      </trkpt>
      <trkpt lat="44.17112" lon="5.12923">
        <ele>344</ele>
        <time>2022-01-31T10:52:56Z</time>
      </trkpt>
      <trkpt lat="44.17057" lon="5.12975">
        <ele>346</ele>
        <time>2022-01-31T10:53:11Z</time>
      </trkpt>
      <trkpt lat="44.17063" lon="5.13181">
        <ele>343</ele>
        <time>2022-01-31T10:53:46Z</time>
      </trkpt>
      <trkpt lat="44.1718" lon="5.13237">
        <ele>342</ele>
        <time>2022-01-31T10:54:15Z</time>
      </trkpt>
      <trkpt lat="44.17226" lon="5.1334">
        <ele>338</ele>
        <time>2022-01-31T10:54:35Z</time>
      </trkpt>
      <trkpt lat="44.17346" lon="5.13378">
        <ele>333</ele>
        <time>2022-01-31T10:55:04Z</time>
      </trkpt>
      <trkpt lat="44.1746" lon="5.13258">
        <ele>327</ele>
        <time>2022-01-31T10:55:37Z</time>
        <extensions>
          <visugpx:TrkExtension xmlns:visugpx="https://www.visugpx.com/editgpx/">
            <visugpx:node>1</visugpx:node>
            </visugpx:TrkExtension>
        </extensions>
      </trkpt>
    </trkseg>
  </trk>
</gpx>